createdAt,value
2018-03-11T00:03:30.908Z,97860.84
2018-03-11T00:05:59.252Z,97853.83
2018-03-11T00:08:26.846Z,97848.42
2018-03-11T00:10:54.451Z,97855.09
2018-03-11T00:13:22.760Z,97846.23
2018-03-11T00:15:51.435Z,97848.97
2018-03-11T00:18:19.751Z,97824.38
2018-03-11T00:20:47.322Z,97846.82
2018-03-11T00:23:15.108Z,97837.96
2018-03-11T00:25:42.711Z,97841.95
2018-03-11T00:28:10.918Z,97837.78
2018-03-11T00:30:39.480Z,97836.28
2018-03-11T00:33:07.000Z,97834.63
2018-03-11T00:35:34.899Z,97832.25
2018-03-11T00:38:02.434Z,97828.61
2018-03-11T00:40:30.208Z,97817.53
2018-03-11T00:42:58.554Z,97817.05
2018-03-11T00:45:26.155Z,97811.75
2018-03-11T00:47:53.838Z,97812.94
2018-03-11T00:50:21.394Z,97802.04
2018-03-11T00:52:50.674Z,97805.78
2018-03-11T00:55:18.968Z,97801.03
2018-03-11T00:57:47.410Z,97793.39
2018-03-11T01:00:15.320Z,97789.68
2018-03-11T01:02:43.522Z,97786.14
2018-03-11T01:05:11.963Z,97774.28
2018-03-11T01:07:39.510Z,97762.97
2018-03-11T01:10:07.060Z,97760.81
2018-03-11T01:12:35.264Z,97758.33
2018-03-11T01:15:02.857Z,97746.48
2018-03-11T01:17:30.871Z,97737.16
2018-03-11T01:19:59.466Z,97740.34
2018-03-11T01:22:26.988Z,97728.98
2018-03-11T01:24:54.843Z,97728.86
2018-03-11T01:27:22.827Z,97727.03
2018-03-11T01:29:53.585Z,97716.56
2018-03-11T01:32:21.624Z,97722.36
2018-03-11T01:34:52.659Z,97720.34
2018-03-11T01:37:20.421Z,97720.52
2018-03-11T01:39:47.987Z,97708.38
2018-03-11T01:42:15.543Z,97702.91
2018-03-11T01:44:43.268Z,97686.96
2018-03-11T01:47:11.695Z,97678.70
2018-03-11T01:49:40.100Z,97674.76
2018-03-11T01:52:08.424Z,97664.75
2018-03-11T01:54:36.771Z,97663.42
2018-03-11T01:57:04.372Z,97662.91
2018-03-11T01:59:32.561Z,97659.20
2018-03-11T02:02:01.094Z,97651.14
2018-03-11T02:04:28.800Z,97632.71
2018-03-11T02:06:56.372Z,97628.86
2018-03-11T02:09:23.939Z,97626.09
2018-03-11T02:11:51.464Z,97625.67
2018-03-11T02:14:20.092Z,97621.23
2018-03-11T02:16:47.620Z,97611.81
2018-03-11T02:19:15.171Z,97615.41
2018-03-11T02:21:42.694Z,97603.31
2018-03-11T02:24:10.252Z,97597.39
2018-03-11T02:26:37.771Z,97598.08
2018-03-11T02:29:05.294Z,97600.05
2018-03-11T02:31:32.861Z,97591.05
2018-03-11T02:34:00.379Z,97595.62
2018-03-11T02:36:27.943Z,97598.82
2018-03-11T02:38:55.468Z,97585.86
2018-03-11T02:41:23.043Z,97587.41
2018-03-11T02:43:50.574Z,97594.16
2018-03-11T02:46:18.128Z,97602.09
2018-03-11T02:48:45.701Z,97595.71
2018-03-11T02:51:13.257Z,97582.54
2018-03-11T02:53:40.783Z,97580.66
2018-03-11T02:56:08.305Z,97585.11
2018-03-11T02:58:35.864Z,97587.78
2018-03-11T03:01:03.372Z,97589.33
2018-03-11T03:03:30.925Z,97583.81
2018-03-11T03:05:58.456Z,97576.83
2018-03-11T03:08:26.007Z,97571.75
2018-03-11T03:10:53.552Z,97572.41
2018-03-11T03:13:21.124Z,97578.54
2018-03-11T03:15:48.652Z,97570.61
2018-03-11T03:18:16.222Z,97572.05
2018-03-11T03:20:43.784Z,97573.14
2018-03-11T03:23:11.310Z,97565.98
2018-03-11T03:25:38.867Z,97565.98
2018-03-11T03:28:06.394Z,97568.92
2018-03-11T03:30:33.951Z,97555.69
2018-03-11T03:33:01.488Z,97552.09
2018-03-11T03:35:29.044Z,97546.94
2018-03-11T03:37:56.611Z,97543.17
2018-03-11T03:40:24.156Z,97545.81
2018-03-11T03:42:51.673Z,97546.92
2018-03-11T03:45:19.227Z,97544.34
2018-03-11T03:47:46.772Z,97545.25
2018-03-11T03:50:14.404Z,97543.48
2018-03-11T03:52:41.955Z,97549.60
2018-03-11T03:55:09.494Z,97541.02
2018-03-11T03:57:37.061Z,97543.31
2018-03-11T04:00:04.622Z,97534.28
2018-03-11T04:02:32.208Z,97529.86
2018-03-11T04:04:59.782Z,97531.73
2018-03-11T04:07:27.334Z,97520.88
2018-03-11T04:09:54.867Z,97513.29
2018-03-11T04:12:23.251Z,97508.93
2018-03-11T04:14:50.779Z,97508.64
2018-03-11T04:17:18.302Z,97494.99
2018-03-11T04:19:45.859Z,97487.38
2018-03-11T04:22:13.388Z,97491.48
2018-03-11T04:24:40.945Z,97483.11
2018-03-11T04:27:08.494Z,97490.55
2018-03-11T04:29:36.082Z,97499.72
2018-03-11T04:32:03.628Z,97494.84
2018-03-11T04:34:31.207Z,97490.63
2018-03-11T04:36:58.796Z,97486.32
2018-03-11T04:39:26.376Z,97499.92
2018-03-11T04:41:54.646Z,97461.05
2018-03-11T04:44:22.163Z,97474.28
2018-03-11T04:46:49.740Z,97480.19
2018-03-11T04:49:17.263Z,97469.38
2018-03-11T04:51:44.908Z,97466.45
2018-03-11T04:54:12.435Z,97470.03
2018-03-11T04:56:40.319Z,97466.28
2018-03-11T04:59:08.110Z,97476.20
2018-03-11T05:01:35.922Z,97465.54
2018-03-11T05:04:03.443Z,97454.53
2018-03-11T05:06:31.007Z,97458.89
2018-03-11T05:08:58.536Z,97445.09
2018-03-11T05:11:26.108Z,97446.32
2018-03-11T05:13:53.642Z,97444.86
2018-03-11T05:16:21.156Z,97440.11
2018-03-11T05:18:48.719Z,97444.62
2018-03-11T05:21:16.297Z,97445.14
2018-03-11T05:23:43.861Z,97441.47
2018-03-11T05:26:11.394Z,97433.80
2018-03-11T05:28:38.959Z,97435.03
2018-03-11T05:31:06.499Z,97444.62
2018-03-11T05:33:34.131Z,97446.97
2018-03-11T05:36:01.662Z,97452.50
2018-03-11T05:38:29.224Z,97447.36
2018-03-11T05:40:56.742Z,97435.24
2018-03-11T05:43:24.911Z,97437.78
2018-03-11T05:45:52.429Z,97428.67
2018-03-11T05:48:19.965Z,97423.89
2018-03-11T05:50:47.542Z,97417.84
2018-03-11T05:53:15.074Z,97417.76
2018-03-11T05:55:42.652Z,97415.50
2018-03-11T05:58:10.176Z,97415.80
2018-03-11T06:00:37.755Z,97411.18
2018-03-11T06:03:05.365Z,97409.61
2018-03-11T06:05:32.961Z,97414.41
2018-03-11T06:08:00.505Z,97412.34
2018-03-11T06:10:28.095Z,97408.63
2018-03-11T06:12:55.610Z,97402.47
2018-03-11T06:15:23.160Z,97408.61
2018-03-11T06:17:50.722Z,97410.92
2018-03-11T06:20:18.248Z,97394.95
2018-03-11T06:22:45.822Z,97394.97
2018-03-11T06:25:13.353Z,97405.81
2018-03-11T06:27:40.909Z,97396.42
2018-03-11T06:30:08.454Z,97395.25
2018-03-11T06:32:36.016Z,97398.48
2018-03-11T06:35:03.556Z,97395.00
2018-03-11T06:37:31.120Z,97402.69
2018-03-11T06:39:58.633Z,97403.66
2018-03-11T06:42:26.164Z,97406.48
2018-03-11T06:44:53.737Z,97398.30
2018-03-11T06:47:21.255Z,97410.92
2018-03-11T06:49:48.815Z,97412.70
2018-03-11T06:52:16.420Z,97426.18
2018-03-11T06:54:43.993Z,97437.40
2018-03-11T06:57:11.509Z,97430.88
2018-03-11T06:59:39.091Z,97424.72
2018-03-11T07:02:09.547Z,97433.61
2018-03-11T07:04:37.207Z,97435.22
2018-03-11T07:07:06.962Z,97442.34
2018-03-11T07:09:34.701Z,97440.21
2018-03-11T07:12:02.233Z,97434.17
2018-03-11T07:14:29.770Z,97449.53
2018-03-11T07:16:57.328Z,97450.49
2018-03-11T07:19:25.294Z,97451.75
2018-03-11T07:21:52.846Z,97460.98
2018-03-11T07:24:20.363Z,97458.66
2018-03-11T07:26:47.916Z,97458.97
2018-03-11T07:29:15.463Z,97451.39
2018-03-11T07:31:43.018Z,97454.95
2018-03-11T07:34:10.541Z,97467.30
2018-03-11T07:36:38.099Z,97470.56
2018-03-11T07:39:05.622Z,97476.41
2018-03-11T07:41:33.186Z,97479.05
2018-03-11T07:44:00.699Z,97486.49
2018-03-11T07:46:28.230Z,97489.11
2018-03-11T07:48:55.782Z,97490.78
2018-03-11T07:51:23.322Z,97490.29
2018-03-11T07:53:50.884Z,97498.27
2018-03-11T07:56:18.404Z,97494.04
2018-03-11T07:58:45.981Z,97501.58
2018-03-11T08:01:13.529Z,97515.04
2018-03-11T08:03:41.095Z,97512.56
2018-03-11T08:06:08.608Z,97502.86
2018-03-11T08:08:36.350Z,97501.42
2018-03-11T08:11:04.047Z,97503.28
2018-03-11T08:13:31.567Z,97501.17
2018-03-11T08:15:59.148Z,97496.80
2018-03-11T08:18:26.674Z,97495.91
2018-03-11T08:20:54.263Z,97504.70
2018-03-11T08:23:21.817Z,97504.16
2018-03-11T08:25:49.425Z,97493.67
2018-03-11T08:28:16.923Z,97505.80
2018-03-11T08:30:44.508Z,97502.98
2018-03-11T08:33:12.033Z,97507.94
2018-03-11T08:35:39.789Z,97500.87
2018-03-11T08:38:07.448Z,97510.95
2018-03-11T08:40:34.996Z,97519.38
2018-03-11T08:43:02.537Z,97518.41
2018-03-11T08:45:30.079Z,97517.28
2018-03-11T08:47:57.605Z,97521.59
2018-03-11T08:50:25.605Z,97507.78
2018-03-11T08:52:53.149Z,97513.88
2018-03-11T08:55:20.714Z,97519.58
2018-03-11T08:57:48.248Z,97518.02
2018-03-11T09:00:15.803Z,97535.19
2018-03-11T09:02:43.329Z,97528.47
2018-03-11T09:05:10.896Z,97525.55
2018-03-11T09:07:38.411Z,97529.67
2018-03-11T09:10:05.976Z,97532.02
2018-03-11T09:12:33.509Z,97540.23
2018-03-11T09:15:01.076Z,97541.16
2018-03-11T09:17:28.628Z,97539.53
2018-03-11T09:19:56.211Z,97540.31
2018-03-11T09:22:23.732Z,97537.45
2018-03-11T09:24:51.255Z,97545.28
2018-03-11T09:27:19.116Z,97547.56
2018-03-11T09:29:46.626Z,97540.66
2018-03-11T09:32:14.180Z,97549.95
2018-03-11T09:34:41.697Z,97549.86
2018-03-11T09:37:09.272Z,97549.27
2018-03-11T09:39:36.893Z,97546.64
2018-03-11T09:42:04.440Z,97552.66
2018-03-11T09:44:31.955Z,97550.95
2018-03-11T09:46:59.510Z,97563.80
2018-03-11T09:49:27.144Z,97566.75
2018-03-11T09:51:54.692Z,97548.80
2018-03-11T09:54:22.242Z,97563.05
2018-03-11T09:56:49.784Z,97564.98
2018-03-11T09:59:17.335Z,97560.59
2018-03-11T10:01:44.850Z,97561.20
2018-03-11T10:04:12.404Z,97557.80
2018-03-11T10:06:39.921Z,97541.03
2018-03-11T10:09:07.481Z,97550.19
2018-03-11T10:11:35.006Z,97543.25
2018-03-11T10:14:02.610Z,97535.45
2018-03-11T10:16:31.244Z,97542.68
2018-03-11T10:18:59.013Z,97530.09
2018-03-11T10:21:29.477Z,97529.57
2018-03-11T10:23:57.217Z,97526.44
2018-03-11T10:26:28.242Z,97524.97
2018-03-11T10:28:59.548Z,97503.48
2018-03-11T10:31:27.423Z,97534.07
2018-03-11T10:33:54.975Z,97532.72
2018-03-11T10:36:22.536Z,97521.09
2018-03-11T10:38:50.072Z,97521.03
2018-03-11T10:41:17.656Z,97522.37
2018-03-11T10:43:45.211Z,97523.16
2018-03-11T10:46:12.768Z,97520.92
2018-03-11T10:48:40.916Z,97522.13
2018-03-11T10:51:08.564Z,97519.21
2018-03-11T10:53:36.558Z,97503.52
2018-03-11T10:56:04.280Z,97502.98
2018-03-11T10:58:31.796Z,97494.11
2018-03-11T11:01:17.690Z,97493.94
2018-03-11T11:03:50.925Z,97483.38
2018-03-11T11:06:19.581Z,97479.92
2018-03-11T11:08:47.127Z,97476.13
2018-03-11T11:11:15.542Z,97469.03
2018-03-11T11:13:43.079Z,97469.09
2018-03-11T11:16:10.969Z,97451.62
2018-03-11T11:18:39.215Z,97455.27
2018-03-11T11:21:06.921Z,97454.98
2018-03-11T11:23:34.501Z,97446.68
2018-03-11T11:26:02.055Z,97445.15
2018-03-11T11:28:30.550Z,97441.59
2018-03-11T11:30:58.109Z,97442.15
2018-03-11T11:33:25.899Z,97439.64
2018-03-11T11:35:55.189Z,97420.71
2018-03-11T11:38:24.699Z,97403.05
2018-03-11T11:40:53.000Z,97400.13
2018-03-11T11:43:21.166Z,97382.94
2018-03-11T11:45:49.480Z,97388.51
2018-03-11T11:48:17.260Z,97388.67
2018-03-11T11:50:45.361Z,97394.63
2018-03-11T11:53:12.902Z,97426.83
2018-03-11T11:55:40.455Z,97432.65
2018-03-11T11:58:08.154Z,97432.64
2018-03-11T12:00:36.337Z,97434.48
2018-03-11T12:03:03.863Z,97419.41
2018-03-11T12:05:31.481Z,97410.22
2018-03-11T12:07:59.066Z,97399.66
2018-03-11T12:10:28.269Z,97395.91
2018-03-11T12:12:57.189Z,97389.44
2018-03-11T12:15:24.712Z,97382.59
2018-03-11T12:17:55.238Z,97379.77
2018-03-11T12:20:23.400Z,97381.43
2018-03-11T12:22:52.385Z,97374.98
2018-03-11T12:25:21.192Z,97369.84
2018-03-11T12:27:49.584Z,97380.56
2018-03-11T12:30:17.101Z,97380.16
2018-03-11T12:32:44.677Z,97383.35
2018-03-11T12:35:13.020Z,97372.31
2018-03-11T12:37:41.157Z,97363.25
2018-03-11T12:40:09.122Z,97340.97
2018-03-11T12:42:37.060Z,97341.94
2018-03-11T12:45:08.291Z,97332.34
2018-03-11T12:47:36.048Z,97314.44
2018-03-11T12:50:04.781Z,97301.68
2018-03-11T12:52:32.463Z,97289.30
2018-03-11T12:54:59.983Z,97288.84
2018-03-11T12:57:27.536Z,97293.87
2018-03-11T12:59:55.064Z,97286.15
2018-03-11T13:02:22.687Z,97287.37
2018-03-11T13:04:50.213Z,97298.66
2018-03-11T13:07:17.774Z,97298.16
2018-03-11T13:09:45.322Z,97296.18
2018-03-11T13:12:12.867Z,97304.13
2018-03-11T13:14:40.429Z,97311.62
2018-03-11T13:17:08.051Z,97303.78
2018-03-11T13:19:35.576Z,97317.89
2018-03-11T13:22:03.132Z,97324.63
2018-03-11T13:24:30.782Z,97329.89
2018-03-11T13:26:58.351Z,97323.19
2018-03-11T13:29:25.920Z,97330.81
2018-03-11T13:31:53.491Z,97325.91
2018-03-11T13:34:27.586Z,97319.36
2018-03-11T13:36:56.743Z,97316.98
2018-03-11T13:39:36.144Z,97305.06
2018-03-11T13:42:03.701Z,97299.05
2018-03-11T13:44:31.227Z,97287.39
2018-03-11T13:47:08.776Z,97285.73
2018-03-11T13:49:36.923Z,97287.86
2018-03-11T13:52:16.470Z,97284.78
2018-03-11T13:54:45.766Z,97278.20
2018-03-11T14:00:25.742Z,97263.50
2018-03-11T14:02:53.633Z,97271.72
2018-03-11T14:05:21.973Z,97263.28
2018-03-11T14:07:54.489Z,97277.83
2018-03-11T14:10:22.288Z,97263.59
2018-03-11T14:12:49.908Z,97269.52
2018-03-11T14:15:18.533Z,97254.51
2018-03-11T14:17:46.115Z,97284.30
2018-03-11T14:20:16.939Z,97275.78
2018-03-11T14:22:48.761Z,97273.61
2018-03-11T14:25:16.494Z,97283.53
2018-03-11T14:27:46.918Z,97278.17
2018-03-11T14:30:15.333Z,97280.11
2018-03-11T14:32:42.858Z,97283.38
2018-03-11T14:35:11.116Z,97288.50
2018-03-11T14:37:38.664Z,97280.17
2018-03-11T14:40:06.176Z,97286.98
2018-03-11T14:42:33.964Z,97287.84
2018-03-11T14:45:04.843Z,97290.98
2018-03-11T14:47:32.578Z,97302.18
2018-03-11T14:50:02.431Z,97290.75
2018-03-11T14:52:30.443Z,97283.19
2018-03-11T14:54:58.079Z,97283.86
2018-03-11T14:57:27.867Z,97278.13
2018-03-11T14:59:58.396Z,97278.73
2018-03-11T15:02:26.026Z,97271.09
2018-03-11T15:04:56.225Z,97281.88
2018-03-11T15:07:25.970Z,97290.20
2018-03-11T15:09:53.628Z,97290.43
2018-03-11T15:12:24.651Z,97285.69
2018-03-11T15:14:52.360Z,97302.86
2018-03-11T15:17:20.953Z,97287.21
2018-03-11T15:19:49.877Z,97289.94
2018-03-11T15:22:20.312Z,97295.22
2018-03-11T15:24:47.876Z,97296.83
2018-03-11T15:27:17.920Z,97298.89
2018-03-11T15:29:47.109Z,97297.73
2018-03-11T15:32:14.886Z,97297.36
2018-03-11T15:34:45.505Z,97302.84
2018-03-11T15:37:16.299Z,97303.83
2018-03-11T15:39:43.922Z,97295.87
2018-03-11T15:42:12.412Z,97297.48
2018-03-11T15:44:41.312Z,97298.20
2018-03-11T15:47:09.061Z,97297.92
2018-03-11T15:49:36.947Z,97286.29
2018-03-11T15:52:05.615Z,97288.76
2018-03-11T15:54:34.913Z,97281.40
2018-03-11T15:57:02.990Z,97286.09
2018-03-11T15:59:36.244Z,97281.77
2018-03-11T16:02:04.959Z,97278.95
2018-03-11T16:04:32.595Z,97273.72
2018-03-11T16:07:03.476Z,97261.97
2018-03-11T16:09:33.986Z,97249.90
2018-03-11T16:12:01.665Z,97250.88
2018-03-11T16:14:32.490Z,97252.47
2018-03-11T16:17:03.074Z,97263.03
2018-03-11T16:19:30.815Z,97250.75
2018-03-11T16:21:58.331Z,97253.88
2018-03-11T16:24:28.558Z,97246.42
2018-03-11T16:26:53.403Z,97235.17
2018-03-11T16:29:21.002Z,97247.92
2018-03-11T16:31:48.550Z,97251.66
2018-03-11T16:34:16.116Z,97250.49
2018-03-11T16:36:43.638Z,97247.67
2018-03-11T16:39:11.202Z,97250.78
2018-03-11T16:41:38.730Z,97240.84
2018-03-11T16:44:06.294Z,97242.50
2018-03-11T16:46:33.815Z,97244.80
2018-03-11T16:49:01.375Z,97247.42
2018-03-11T16:51:28.990Z,97240.78
2018-03-11T16:53:56.977Z,97237.68
2018-03-11T16:56:26.199Z,97242.44
2018-03-11T16:58:57.269Z,97259.48
2018-03-11T17:01:28.876Z,97259.45
2018-03-11T17:03:56.606Z,97266.80
2018-03-11T17:06:24.315Z,97264.47
2018-03-11T17:08:54.940Z,97264.12
2018-03-11T17:11:28.344Z,97262.90
2018-03-11T17:14:04.899Z,97270.76
2018-03-11T17:16:33.088Z,97266.11
2018-03-11T17:19:02.663Z,97262.06
2018-03-11T17:21:30.831Z,97262.35
2018-03-11T17:23:59.758Z,97263.28
2018-03-11T17:26:27.551Z,97260.45
2018-03-11T17:28:55.080Z,97250.08
2018-03-11T17:31:22.626Z,97257.16
2018-03-11T17:33:50.165Z,97240.66
2018-03-11T17:36:17.719Z,97243.86
2018-03-11T17:38:47.083Z,97243.66
2018-03-11T17:41:14.684Z,97242.91
2018-03-11T17:43:43.573Z,97240.22
2018-03-11T17:46:11.184Z,97235.83
2018-03-11T17:48:39.098Z,97228.86
2018-03-11T17:51:06.691Z,97241.39
2018-03-11T17:53:34.232Z,97235.69
2018-03-11T17:56:02.312Z,97252.77
2018-03-11T17:58:29.863Z,97246.34
2018-03-11T18:00:57.422Z,97252.50
2018-03-11T18:03:24.986Z,97239.20
2018-03-11T18:05:52.520Z,97251.55
2018-03-11T18:08:21.220Z,97249.81
2018-03-11T18:10:48.749Z,97247.89
2018-03-11T18:13:16.327Z,97237.13
2018-03-11T18:15:43.905Z,97238.42
2018-03-11T18:18:11.427Z,97245.06
2018-03-11T18:20:39.005Z,97240.72
2018-03-11T18:23:07.555Z,97242.48
2018-03-11T18:25:35.140Z,97231.02
2018-03-11T18:28:02.673Z,97241.57
2018-03-11T18:30:30.246Z,97237.81
2018-03-11T18:32:57.780Z,97232.55
2018-03-11T18:35:25.511Z,97236.00
2018-03-11T18:37:53.050Z,97237.05
2018-03-11T18:40:20.612Z,97231.95
2018-03-11T18:42:48.148Z,97221.81
2018-03-11T18:45:15.728Z,97229.58
2018-03-11T18:47:43.253Z,97221.64
2018-03-11T18:50:10.813Z,97229.47
2018-03-11T18:52:39.266Z,97218.36
2018-03-11T18:55:06.888Z,97222.91
2018-03-11T18:57:34.426Z,97220.25
2018-03-11T19:00:03.116Z,97214.16
2018-03-11T19:02:30.667Z,97218.48
2018-03-11T19:04:58.220Z,97210.95
2018-03-11T19:07:25.753Z,97219.23
2018-03-11T19:09:53.312Z,97215.39
2018-03-11T19:12:20.865Z,97214.43
2018-03-11T19:14:48.423Z,97217.95
2018-03-11T19:17:15.960Z,97212.04
2018-03-11T19:19:43.508Z,97216.27
2018-03-11T19:22:11.056Z,97214.76
2018-03-11T19:24:38.636Z,97221.18
2018-03-11T19:27:06.218Z,97216.98
2018-03-11T19:29:33.744Z,97221.97
2018-03-11T19:32:01.292Z,97218.30
2018-03-11T19:34:28.910Z,97209.80
2018-03-11T19:36:56.420Z,97219.34
2018-03-11T19:39:23.981Z,97214.84
2018-03-11T19:41:51.812Z,97209.75
2018-03-11T19:44:19.641Z,97210.30
2018-03-11T19:46:49.591Z,97212.78
2018-03-11T19:49:17.204Z,97203.73
2018-03-11T19:51:44.784Z,97204.27
2018-03-11T19:54:12.311Z,97202.39
2018-03-11T19:56:39.873Z,97209.63
2018-03-11T19:59:07.524Z,97203.87
2018-03-11T20:01:35.573Z,97201.23
2018-03-11T20:04:03.265Z,97208.28
2018-03-11T20:06:30.864Z,97213.09
2018-03-11T20:08:58.411Z,97202.63
2018-03-11T20:11:26.206Z,97209.89
2018-03-11T20:13:53.789Z,97213.09
2018-03-11T20:16:21.367Z,97213.97
2018-03-11T20:18:48.895Z,97216.91
2018-03-11T20:21:16.441Z,97221.23
2018-03-11T20:23:45.241Z,97211.20
2018-03-11T20:26:13.228Z,97213.91
2018-03-11T20:28:41.119Z,97208.48
2018-03-11T20:31:08.663Z,97206.13
2018-03-11T20:33:36.231Z,97209.16
2018-03-11T20:36:03.787Z,97205.51
2018-03-11T20:38:31.427Z,97202.97
2018-03-11T20:40:58.985Z,97200.90
2018-03-11T20:43:26.608Z,97195.31
2018-03-11T20:45:54.140Z,97193.34
2018-03-11T20:48:21.749Z,97203.20
2018-03-11T20:50:49.273Z,97200.16
2018-03-11T20:53:16.847Z,97192.17
2018-03-11T20:55:44.425Z,97196.92
2018-03-11T20:58:12.012Z,97199.22
2018-03-11T21:00:39.544Z,97202.02
2018-03-11T21:03:07.115Z,97203.56
2018-03-11T21:05:34.640Z,97203.06
2018-03-11T21:08:02.213Z,97199.13
2018-03-11T21:10:29.744Z,97191.42
2018-03-11T21:12:57.426Z,97196.33
2018-03-11T21:15:24.915Z,97190.90
2018-03-11T21:17:52.488Z,97187.95
2018-03-11T21:20:20.019Z,97192.37
2018-03-11T21:22:47.597Z,97188.87
2018-03-11T21:25:15.130Z,97194.14
2018-03-11T21:27:42.690Z,97185.14
2018-03-11T21:30:10.228Z,97182.32
2018-03-11T21:32:37.842Z,97178.45
2018-03-11T21:35:05.366Z,97180.87
2018-03-11T21:37:33.458Z,97185.20
2018-03-11T21:40:00.984Z,97177.13
2018-03-11T21:42:28.540Z,97177.09
2018-03-11T21:44:56.068Z,97176.36
2018-03-11T21:47:23.628Z,97178.89
2018-03-11T21:49:51.164Z,97181.70
2018-03-11T21:52:18.719Z,97183.02
2018-03-11T21:54:46.296Z,97174.81
2018-03-11T21:57:13.875Z,97179.84
2018-03-11T21:59:41.416Z,97185.17
2018-03-11T22:02:08.975Z,97178.51
2018-03-11T22:04:39.415Z,97183.25
2018-03-11T22:07:08.614Z,97183.33
2018-03-11T22:09:37.133Z,97168.93
2018-03-11T22:12:05.364Z,97165.14
2018-03-11T22:14:35.940Z,97160.08
2018-03-11T22:17:05.022Z,97161.12
2018-03-11T22:19:34.657Z,97129.95
2018-03-11T22:22:04.298Z,97143.84
2018-03-11T22:24:33.583Z,97150.60
2018-03-11T22:27:02.785Z,97146.67
2018-03-11T22:29:31.005Z,97138.61
2018-03-11T22:31:59.593Z,97144.48
2018-03-11T22:34:29.848Z,97146.92
2018-03-11T22:36:59.218Z,97147.75
2018-03-11T22:39:28.339Z,97132.70
2018-03-11T22:41:57.550Z,97137.16
2018-03-11T22:44:27.632Z,97137.93
2018-03-11T22:46:57.528Z,97139.57
2018-03-11T22:49:27.023Z,97140.47
2018-03-11T22:51:57.062Z,97145.51
2018-03-11T22:54:25.482Z,97147.15
2018-03-11T22:56:55.290Z,97144.38
2018-03-11T22:59:23.360Z,97149.78
2018-03-11T23:01:51.790Z,97146.20
2018-03-11T23:04:20.425Z,97141.78
2018-03-11T23:06:50.749Z,97145.93
2018-03-11T23:09:21.021Z,97152.62
2018-03-11T23:11:48.896Z,97149.19
2018-03-11T23:14:16.468Z,97148.25
2018-03-11T23:16:43.984Z,97148.03
2018-03-11T23:19:24.030Z,97148.31
2018-03-11T23:21:52.464Z,97143.97
2018-03-11T23:24:20.455Z,97142.66
2018-03-11T23:26:49.289Z,97143.10
2018-03-11T23:29:19.004Z,97132.59
2018-03-11T23:31:46.867Z,97136.38
2018-03-11T23:34:15.187Z,97129.83
2018-03-11T23:36:43.060Z,97133.34
2018-03-11T23:39:10.899Z,97130.59
2018-03-11T23:41:42.584Z,97133.11
2018-03-11T23:44:11.423Z,97136.98
2018-03-11T23:46:39.136Z,97139.41
2018-03-11T23:49:07.667Z,97139.95
2018-03-11T23:51:35.815Z,97145.67
2018-03-11T23:54:04.474Z,97136.11
2018-03-11T23:56:36.901Z,97130.20
2018-03-11T23:59:07.885Z,97126.00
